createdAt,value
2023-04-04T00:00:20.876Z,41.03
2023-04-04T00:00:55.952Z,40.65
2023-04-04T00:01:28.248Z,41.01
2023-04-04T00:02:01.283Z,40.65
2023-04-04T00:02:36.405Z,40.58
2023-04-04T00:03:08.859Z,41.03
2023-04-04T00:03:41.556Z,40.82
2023-04-04T00:04:17.795Z,40.65
2023-04-04T00:04:50.205Z,41.06
2023-04-04T00:05:25.150Z,40.88
2023-04-04T00:06:00.128Z,40.86
2023-04-04T00:06:32.542Z,41.05
2023-04-04T00:07:04.903Z,41.08
2023-04-04T00:07:39.870Z,40.98
2023-04-04T00:08:12.223Z,40.79
2023-04-04T00:08:44.584Z,40.77
2023-04-04T00:09:19.541Z,40.74
2023-04-04T00:09:51.834Z,41.05
2023-04-04T00:10:24.220Z,40.92
2023-04-04T00:11:01.453Z,40.81
2023-04-04T00:11:34.046Z,40.70
2023-04-04T00:12:06.940Z,40.61
2023-04-04T00:12:41.982Z,41.10
2023-04-04T00:13:14.297Z,40.67
2023-04-04T00:13:46.721Z,40.88
2023-04-04T00:14:21.853Z,40.57
2023-04-04T00:14:54.194Z,40.95
2023-04-04T00:15:27.468Z,41.03
2023-04-04T00:16:02.508Z,41.06
2023-04-04T00:16:35.133Z,40.78
2023-04-04T00:17:07.561Z,40.78
2023-04-04T00:17:42.492Z,40.88
2023-04-04T00:18:14.894Z,40.88
2023-04-04T00:18:47.238Z,40.74
2023-04-04T00:19:22.958Z,40.91
2023-04-04T00:19:57.351Z,40.96
2023-04-04T00:20:34.856Z,41.15
2023-04-04T00:21:07.282Z,40.83
2023-04-04T00:21:39.585Z,41.08
2023-04-04T00:22:14.569Z,40.97
2023-04-04T00:22:46.875Z,40.91
2023-04-04T00:23:19.715Z,40.75
2023-04-04T00:23:54.688Z,40.84
2023-04-04T00:24:29.657Z,41.13
2023-04-04T00:25:01.991Z,40.75
2023-04-04T00:25:34.339Z,40.88
2023-04-04T00:26:06.908Z,40.72
2023-04-04T00:26:41.889Z,40.88
2023-04-04T00:27:14.246Z,40.87
2023-04-04T00:27:48.039Z,40.97
2023-04-04T00:28:23.381Z,41.22
2023-04-04T00:28:56.406Z,41.03
2023-04-04T00:29:28.955Z,41.04
2023-04-04T00:30:05.345Z,41.23
2023-04-04T00:30:38.331Z,40.97
2023-04-04T00:31:10.874Z,40.81
2023-04-04T00:31:45.884Z,41.00
2023-04-04T00:32:18.290Z,41.13
2023-04-04T00:32:50.927Z,41.13
2023-04-04T00:33:25.923Z,40.96
2023-04-04T00:33:58.322Z,40.91
2023-04-04T00:34:30.621Z,40.98
2023-04-04T00:35:05.564Z,40.98
2023-04-04T00:35:40.876Z,41.10
2023-04-04T00:36:13.604Z,41.15
2023-04-04T00:36:48.583Z,41.21
2023-04-04T00:37:21.864Z,40.83
2023-04-04T00:37:54.365Z,40.88
2023-04-04T00:38:29.869Z,41.09
2023-04-04T00:39:02.301Z,41.08
2023-04-04T00:39:34.710Z,40.78
2023-04-04T00:40:09.512Z,41.10
2023-04-04T00:40:45.867Z,41.08
2023-04-04T00:41:18.380Z,40.99
2023-04-04T00:41:50.753Z,40.86
2023-04-04T00:42:25.786Z,41.20
2023-04-04T00:42:59.803Z,40.88
2023-04-04T00:43:32.787Z,41.22
2023-04-04T00:44:08.107Z,40.86
2023-04-04T00:44:40.680Z,41.07
2023-04-04T00:45:13.015Z,40.97
2023-04-04T00:45:45.545Z,40.90
2023-04-04T00:46:20.546Z,40.98
2023-04-04T00:46:52.996Z,41.29
2023-04-04T00:47:26.547Z,40.83
2023-04-04T00:48:02.009Z,40.93
2023-04-04T00:48:34.765Z,40.85
2023-04-04T00:49:07.369Z,41.15
2023-04-04T00:49:42.319Z,40.97
2023-04-04T00:50:14.629Z,40.83
2023-04-04T00:50:49.546Z,41.04
2023-04-04T00:51:24.529Z,41.14
2023-04-04T00:51:57.071Z,40.91
2023-04-04T00:52:29.495Z,40.82
2023-04-04T00:53:02.006Z,40.90
2023-04-04T00:53:37.435Z,41.21
2023-04-04T00:54:09.841Z,41.17
2023-04-04T00:54:42.573Z,41.10
2023-04-04T00:55:15.156Z,41.37
2023-04-04T00:55:50.093Z,41.26
2023-04-04T00:56:22.953Z,41.10
2023-04-04T00:56:55.731Z,41.26
2023-04-04T00:57:31.011Z,41.05
2023-04-04T00:58:03.634Z,41.37
2023-04-04T00:58:36.502Z,40.96
2023-04-04T00:59:11.795Z,41.37
2023-04-04T00:59:44.399Z,41.13
2023-04-04T01:00:17.068Z,41.23
2023-04-04T01:00:49.471Z,41.19
2023-04-04T01:01:25.964Z,41.07
2023-04-04T01:01:58.613Z,41.15
2023-04-04T01:02:31.201Z,41.15
2023-04-04T01:03:08.005Z,40.80
2023-04-04T01:03:40.684Z,41.00
2023-04-04T01:04:13.085Z,41.29
2023-04-04T01:04:48.845Z,41.07
2023-04-04T01:05:22.214Z,41.12
2023-04-04T01:05:57.527Z,40.89
2023-04-04T01:06:33.441Z,41.42
2023-04-04T01:07:05.789Z,41.22
2023-04-04T01:07:38.169Z,41.39
2023-04-04T01:08:13.226Z,41.42
2023-04-04T01:08:46.457Z,41.00
2023-04-04T01:09:19.420Z,41.05
2023-04-04T01:09:54.456Z,40.75
2023-04-04T01:10:26.896Z,41.02
2023-04-04T01:10:59.543Z,40.76
2023-04-04T01:11:34.857Z,40.84
2023-04-04T01:12:08.356Z,40.73
2023-04-04T01:12:42.434Z,40.93
2023-04-04T01:13:18.088Z,41.09
2023-04-04T01:13:51.193Z,41.15
2023-04-04T01:14:24.256Z,40.87
2023-04-04T01:14:56.653Z,41.13
2023-04-04T01:15:32.127Z,41.40
2023-04-04T01:16:06.265Z,41.07
2023-04-04T01:16:39.108Z,41.27
2023-04-04T01:17:14.131Z,41.33
2023-04-04T01:17:46.508Z,41.30
2023-04-04T01:18:21.020Z,40.97
2023-04-04T01:18:57.199Z,41.21
2023-04-04T01:19:32.991Z,41.38
2023-04-04T01:20:13.446Z,41.01
2023-04-04T01:21:01.141Z,41.35
2023-04-04T01:21:34.092Z,41.14
2023-04-04T01:22:06.718Z,41.37
2023-04-04T01:22:42.345Z,40.89
2023-04-04T01:23:15.170Z,41.13
2023-04-04T01:24:05.930Z,40.99
2023-04-04T01:24:47.282Z,40.91
2023-04-04T01:25:27.169Z,41.42
2023-04-04T01:26:05.914Z,41.21
2023-04-04T01:26:39.648Z,40.86
2023-04-04T01:27:14.805Z,41.05
2023-04-04T01:27:54.837Z,40.79
2023-04-04T01:28:28.091Z,41.03
2023-04-04T01:29:03.154Z,41.13
2023-04-04T01:29:35.533Z,40.65
2023-04-04T01:30:10.072Z,40.70
2023-04-04T01:30:45.872Z,40.84
2023-04-04T01:31:22.674Z,41.26
2023-04-04T01:31:58.223Z,41.27
2023-04-04T01:32:37.178Z,41.08
2023-04-04T01:33:14.009Z,41.00
2023-04-04T01:33:50.648Z,40.77
2023-04-04T01:34:32.147Z,40.92
2023-04-04T01:35:17.073Z,40.97
2023-04-04T01:35:59.655Z,40.78
2023-04-04T01:36:34.915Z,41.06
2023-04-04T01:37:12.449Z,41.14
2023-04-04T01:37:52.678Z,40.71
2023-04-04T01:38:29.205Z,40.85
2023-04-04T01:39:09.793Z,41.10
2023-04-04T01:39:48.310Z,41.08
2023-04-04T01:40:22.543Z,41.11
2023-04-04T01:41:06.749Z,40.86
2023-04-04T01:41:41.272Z,40.71
2023-04-04T01:42:14.443Z,40.76
2023-04-04T01:42:52.164Z,41.10
2023-04-04T01:43:25.331Z,40.86
2023-04-04T01:43:57.865Z,40.76
2023-04-04T01:44:34.001Z,40.71
2023-04-04T01:45:09.298Z,40.95
2023-04-04T01:45:42.510Z,40.91
2023-04-04T01:46:18.247Z,41.15
2023-04-04T01:46:56.770Z,41.03
2023-04-04T01:47:31.276Z,40.88
2023-04-04T01:48:03.744Z,41.33
2023-04-04T01:48:38.867Z,40.91
2023-04-04T01:49:13.028Z,41.15
2023-04-04T01:49:45.977Z,40.67
2023-04-04T01:50:22.447Z,40.78
2023-04-04T01:50:54.961Z,41.14
2023-04-04T01:51:29.332Z,40.99
2023-04-04T01:52:05.728Z,40.74
2023-04-04T01:52:38.715Z,41.20
2023-04-04T01:53:11.400Z,40.92
2023-04-04T01:53:46.313Z,41.00
2023-04-04T01:54:19.365Z,41.16
2023-04-04T01:54:51.700Z,41.23
2023-04-04T01:55:24.285Z,41.17
2023-04-04T01:55:59.239Z,41.36
2023-04-04T01:56:35.219Z,41.35
2023-04-04T01:57:07.628Z,41.39
2023-04-04T01:57:40.196Z,41.26
2023-04-04T01:58:15.205Z,41.08
2023-04-04T01:58:47.739Z,41.04
2023-04-04T01:59:20.210Z,41.30
2023-04-04T01:59:55.237Z,41.32
2023-04-04T02:00:27.707Z,41.03
2023-04-04T02:01:00.021Z,41.45
2023-04-04T02:01:35.297Z,41.35
2023-04-04T02:02:07.707Z,41.15
2023-04-04T02:02:40.027Z,41.27
2023-04-04T02:03:14.956Z,40.98
2023-04-04T02:03:47.715Z,41.11
2023-04-04T02:04:20.135Z,41.10
2023-04-04T02:04:55.561Z,41.02
2023-04-04T02:05:28.481Z,40.76
2023-04-04T02:06:00.869Z,41.04
2023-04-04T02:06:36.461Z,41.25
2023-04-04T02:07:09.589Z,41.20
2023-04-04T02:07:42.139Z,41.09
2023-04-04T02:08:29.079Z,40.90
2023-04-04T02:09:03.489Z,41.27
2023-04-04T02:09:35.860Z,41.20
2023-04-04T02:10:11.785Z,41.16
2023-04-04T02:10:44.489Z,40.88
2023-04-04T02:11:17.687Z,41.33
2023-04-04T02:11:55.202Z,40.93
2023-04-04T02:12:27.614Z,41.28
2023-04-04T02:12:59.918Z,41.24
2023-04-04T02:13:34.849Z,41.19
2023-04-04T02:14:07.218Z,41.00
2023-04-04T02:14:40.049Z,40.87
2023-04-04T02:15:14.969Z,41.27
2023-04-04T02:15:49.630Z,40.72
2023-04-04T02:16:22.048Z,40.82
2023-04-04T02:16:57.084Z,40.91
2023-04-04T02:17:29.449Z,40.71
2023-04-04T02:18:02.346Z,40.98
2023-04-04T02:18:34.842Z,40.88
2023-04-04T02:19:10.193Z,41.04
2023-04-04T02:19:43.103Z,40.78
2023-04-04T02:20:15.689Z,40.76
2023-04-04T02:20:50.744Z,40.77
2023-04-04T02:21:23.158Z,40.61
2023-04-04T02:21:56.662Z,40.98
2023-04-04T02:22:31.566Z,40.74
2023-04-04T02:23:03.887Z,40.67
2023-04-04T02:23:36.290Z,40.96
2023-04-04T02:24:11.675Z,41.07
2023-04-04T02:24:44.327Z,41.05
2023-04-04T02:25:16.914Z,41.00
2023-04-04T02:25:53.672Z,41.05
2023-04-04T02:26:25.973Z,41.09
2023-04-04T02:27:00.875Z,41.00
2023-04-04T02:27:35.796Z,41.00
2023-04-04T02:28:08.097Z,40.98
2023-04-04T02:28:40.415Z,40.76
2023-04-04T02:29:15.363Z,40.88
2023-04-04T02:29:49.339Z,40.84
2023-04-04T02:30:21.643Z,40.84
2023-04-04T02:30:58.464Z,40.65
2023-04-04T02:31:30.909Z,40.66
2023-04-04T02:32:03.553Z,41.02
2023-04-04T02:32:39.020Z,41.15
2023-04-04T02:33:13.274Z,40.85
2023-04-04T02:33:45.674Z,40.67
2023-04-04T02:34:21.452Z,40.64
2023-04-04T02:34:56.528Z,40.91
2023-04-04T02:35:28.884Z,40.87
2023-04-04T02:36:04.049Z,40.56
2023-04-04T02:36:36.941Z,40.57
2023-04-04T02:37:09.806Z,41.00
2023-04-04T02:37:44.708Z,40.62
2023-04-04T02:38:18.700Z,40.76
2023-04-04T02:38:52.892Z,41.03
2023-04-04T02:39:30.686Z,40.81
2023-04-04T02:40:03.939Z,40.96
2023-04-04T02:40:41.719Z,40.56
2023-04-04T02:41:17.234Z,40.97
2023-04-04T02:41:49.542Z,40.86
2023-04-04T02:42:24.466Z,40.49
2023-04-04T02:42:57.105Z,40.55
2023-04-04T02:43:32.282Z,40.97
2023-04-04T02:44:05.491Z,40.58
2023-04-04T02:44:38.042Z,40.55
2023-04-04T02:45:16.189Z,40.85
2023-04-04T02:45:55.804Z,40.77
2023-04-04T02:46:30.270Z,40.59
2023-04-04T02:47:10.437Z,40.62
2023-04-04T02:47:43.142Z,40.59
2023-04-04T02:48:17.100Z,40.96
2023-04-04T02:48:55.487Z,40.91
2023-04-04T02:49:29.856Z,41.02
2023-04-04T02:50:02.993Z,40.77
2023-04-04T02:50:39.560Z,40.93
2023-04-04T02:51:13.331Z,41.17
2023-04-04T02:51:45.679Z,41.03
2023-04-04T02:52:20.589Z,40.87
2023-04-04T02:52:55.107Z,40.67
2023-04-04T02:53:28.040Z,40.92
2023-04-04T02:54:07.306Z,40.70
2023-04-04T02:54:46.500Z,40.83
2023-04-04T02:55:31.991Z,40.71
2023-04-04T02:56:04.670Z,41.07
2023-04-04T02:56:37.950Z,40.80
2023-04-04T02:57:12.945Z,40.72
2023-04-04T02:57:53.781Z,40.85
2023-04-04T02:58:26.201Z,40.87
2023-04-04T02:59:01.568Z,40.90
2023-04-04T02:59:33.927Z,40.64
2023-04-04T03:00:08.065Z,41.03
2023-04-04T03:00:43.226Z,40.63
2023-04-04T03:01:15.985Z,40.82
2023-04-04T03:01:48.577Z,41.01
2023-04-04T03:02:23.591Z,40.85
2023-04-04T03:02:57.220Z,41.12
2023-04-04T03:03:38.495Z,41.10
2023-04-04T03:04:11.621Z,40.67
2023-04-04T03:04:43.939Z,41.04
2023-04-04T03:05:18.854Z,41.04
2023-04-04T03:05:51.636Z,40.88
2023-04-04T03:06:24.237Z,41.00
2023-04-04T03:06:59.780Z,41.07
2023-04-04T03:07:32.081Z,40.79
2023-04-04T03:08:04.970Z,41.10
2023-04-04T03:08:39.932Z,41.22
2023-04-04T03:09:12.512Z,40.79
2023-04-04T03:09:45.506Z,40.94
2023-04-04T03:10:20.482Z,41.22
2023-04-04T03:10:52.870Z,41.27
2023-04-04T03:11:27.902Z,40.80
2023-04-04T03:12:01.356Z,41.00
2023-04-04T03:12:33.723Z,41.03
2023-04-04T03:13:11.514Z,40.92
2023-04-04T03:13:44.710Z,41.25
2023-04-04T03:14:17.233Z,40.87
2023-04-04T03:14:52.164Z,40.79
2023-04-04T03:15:25.823Z,41.10
2023-04-04T03:16:00.131Z,41.01
2023-04-04T03:16:35.846Z,41.32
2023-04-04T03:17:09.528Z,40.98
2023-04-04T03:17:42.175Z,41.05
2023-04-04T03:18:17.730Z,40.88
2023-04-04T03:18:50.738Z,41.28
2023-04-04T03:19:26.136Z,40.91
2023-04-04T03:20:01.412Z,40.88
2023-04-04T03:20:33.890Z,41.26
2023-04-04T03:21:06.551Z,41.00
2023-04-04T03:21:41.606Z,40.88
2023-04-04T03:22:13.976Z,40.84
2023-04-04T03:22:47.050Z,41.04
2023-04-04T03:23:22.040Z,40.88
2023-04-04T03:23:54.342Z,41.27
2023-04-04T03:24:26.762Z,41.15
2023-04-04T03:24:59.187Z,41.25
2023-04-04T03:25:34.086Z,40.91
2023-04-04T03:26:06.512Z,41.20
2023-04-04T03:26:39.218Z,41.00
2023-04-04T03:27:14.403Z,41.08
2023-04-04T03:27:46.922Z,41.23
2023-04-04T03:28:29.469Z,40.98
2023-04-04T03:29:04.992Z,41.19
2023-04-04T03:29:37.428Z,41.09
2023-04-04T03:30:11.187Z,40.98
2023-04-04T03:30:46.172Z,41.13
2023-04-04T03:31:18.483Z,40.74
2023-04-04T03:31:51.044Z,41.21
2023-04-04T03:32:25.975Z,40.93
2023-04-04T03:32:58.360Z,41.22
2023-04-04T03:33:30.867Z,40.70
2023-04-04T03:34:05.769Z,40.82
2023-04-04T03:34:38.106Z,41.15
2023-04-04T03:35:10.578Z,41.23
2023-04-04T03:35:45.786Z,40.76
2023-04-04T03:36:21.355Z,40.72
2023-04-04T03:36:55.661Z,41.17
2023-04-04T03:37:30.378Z,40.77
2023-04-04T03:38:05.430Z,40.93
2023-04-04T03:38:38.661Z,40.98
2023-04-04T03:39:11.125Z,41.18
2023-04-04T03:39:46.044Z,40.71
2023-04-04T03:40:18.628Z,40.76
2023-04-04T03:40:51.597Z,41.19
2023-04-04T03:41:26.529Z,41.17
2023-04-04T03:41:59.736Z,40.79
2023-04-04T03:42:34.403Z,40.65
2023-04-04T03:43:12.467Z,40.93
2023-04-04T03:43:48.728Z,40.83
2023-04-04T03:44:21.153Z,41.26
2023-04-04T03:44:56.398Z,40.96
2023-04-04T03:45:36.157Z,40.93
2023-04-04T03:46:09.217Z,41.05
2023-04-04T03:46:45.209Z,41.02
2023-04-04T03:47:19.454Z,40.78
2023-04-04T03:47:52.059Z,40.77
2023-04-04T03:48:27.489Z,40.92
2023-04-04T03:49:00.193Z,40.76
2023-04-04T03:49:33.424Z,40.67
2023-04-04T03:50:09.550Z,41.42
2023-04-04T03:50:45.236Z,40.84
2023-04-04T03:51:23.936Z,41.09
2023-04-04T03:51:59.050Z,40.93
2023-04-04T03:52:31.374Z,41.02
2023-04-04T03:53:03.921Z,41.04
2023-04-04T03:53:39.862Z,40.93
2023-04-04T03:54:12.194Z,40.89
2023-04-04T03:54:44.823Z,40.98
2023-04-04T03:55:19.796Z,40.81
2023-04-04T03:55:52.787Z,41.25
2023-04-04T03:56:25.598Z,40.79
2023-04-04T03:57:00.725Z,40.98
2023-04-04T03:57:33.626Z,41.28
2023-04-04T03:58:08.478Z,40.76
2023-04-04T03:58:43.433Z,41.27
2023-04-04T03:59:23.768Z,40.95
2023-04-04T03:59:56.292Z,41.18
2023-04-04T04:00:31.750Z,41.15
2023-04-04T04:01:04.119Z,40.76
2023-04-04T04:01:37.344Z,41.09
2023-04-04T04:02:12.340Z,41.00
2023-04-04T04:02:44.780Z,40.83
2023-04-04T04:03:17.475Z,41.30
2023-04-04T04:03:54.292Z,41.16
2023-04-04T04:04:26.953Z,40.82
2023-04-04T04:04:59.302Z,41.10
2023-04-04T04:05:34.206Z,40.78
2023-04-04T04:06:07.088Z,40.80
2023-04-04T04:06:39.440Z,41.05
2023-04-04T04:07:14.418Z,41.14
2023-04-04T04:07:47.892Z,40.84
2023-04-04T04:08:20.204Z,41.06
2023-04-04T04:08:56.561Z,40.78
2023-04-04T04:09:28.873Z,41.25
2023-04-04T04:10:01.186Z,41.16
2023-04-04T04:10:36.605Z,41.17
2023-04-04T04:11:09.281Z,40.81
2023-04-04T04:11:41.662Z,41.05
2023-04-04T04:12:16.630Z,40.94
2023-04-04T04:12:49.595Z,41.17
2023-04-04T04:13:22.363Z,41.34
2023-04-04T04:13:58.707Z,41.13
2023-04-04T04:14:33.799Z,41.11
2023-04-04T04:15:08.988Z,41.25
2023-04-04T04:15:45.294Z,40.81
2023-04-04T04:16:24.112Z,41.18
2023-04-04T04:16:57.769Z,41.31
2023-04-04T04:17:33.646Z,41.07
2023-04-04T04:18:07.557Z,41.25
2023-04-04T04:18:42.622Z,41.13
2023-04-04T04:19:19.036Z,41.05
2023-04-04T04:19:52.275Z,41.00
2023-04-04T04:20:27.192Z,41.15
2023-04-04T04:21:00.115Z,41.03
2023-04-04T04:21:32.429Z,40.81
2023-04-04T04:22:07.462Z,40.86
2023-04-04T04:22:39.862Z,41.20
2023-04-04T04:23:12.171Z,41.01
2023-04-04T04:23:47.124Z,40.76
2023-04-04T04:24:19.513Z,40.82
2023-04-04T04:24:51.938Z,41.27
2023-04-04T04:25:27.298Z,41.28
2023-04-04T04:26:21.666Z,40.98
2023-04-04T04:26:56.680Z,40.98
2023-04-04T04:27:29.906Z,40.86
2023-04-04T04:28:02.256Z,41.16
2023-04-04T04:28:37.273Z,41.08
2023-04-04T04:29:15.149Z,41.00
2023-04-04T04:29:50.186Z,41.30
2023-04-04T04:30:25.709Z,41.09
2023-04-04T04:30:58.863Z,40.90
2023-04-04T04:31:31.747Z,40.99
2023-04-04T04:32:07.285Z,41.19
2023-04-04T04:32:43.855Z,40.83
2023-04-04T04:33:16.920Z,41.25
2023-04-04T04:34:04.765Z,41.03
2023-04-04T04:34:37.626Z,41.10
2023-04-04T04:35:10.308Z,40.78
2023-04-04T04:35:47.028Z,40.91
2023-04-04T04:36:19.557Z,41.18
2023-04-04T04:37:04.554Z,41.06
2023-04-04T04:37:44.282Z,40.74
2023-04-04T04:38:19.621Z,40.80
2023-04-04T04:38:52.549Z,41.10
2023-04-04T04:39:25.621Z,40.81
2023-04-04T04:40:14.485Z,40.99
2023-04-04T04:40:48.662Z,40.91
2023-04-04T04:41:30.918Z,40.96
2023-04-04T04:42:06.202Z,40.81
2023-04-04T04:42:44.681Z,40.76
2023-04-04T04:43:20.000Z,40.87
2023-04-04T04:43:56.183Z,40.68
2023-04-04T04:44:32.707Z,40.70
2023-04-04T04:45:11.547Z,40.73
2023-04-04T04:45:47.363Z,40.81
2023-04-04T04:46:22.345Z,40.86
2023-04-04T04:46:54.752Z,40.78
2023-04-04T04:47:30.706Z,40.88
2023-04-04T04:48:06.242Z,40.72
2023-04-04T04:48:43.705Z,40.88
2023-04-04T04:49:20.629Z,40.90
2023-04-04T04:49:53.213Z,40.94
2023-04-04T04:50:38.238Z,41.13
2023-04-04T04:51:10.886Z,41.13
2023-04-04T04:51:49.355Z,40.88
2023-04-04T04:52:25.592Z,41.19
2023-04-04T04:52:57.985Z,41.14
2023-04-04T04:53:31.005Z,40.93
2023-04-04T04:54:06.321Z,41.08
2023-04-04T04:54:39.014Z,40.79
2023-04-04T04:55:11.878Z,40.98
2023-04-04T04:55:52.505Z,41.10
2023-04-04T04:56:26.097Z,41.16
2023-04-04T04:57:02.942Z,41.04
2023-04-04T04:57:38.576Z,41.34
2023-04-04T04:58:17.930Z,41.16
2023-04-04T04:58:57.031Z,40.98
2023-04-04T04:59:32.121Z,41.10
2023-04-04T05:00:10.282Z,41.29
2023-04-04T05:00:45.459Z,40.94
2023-04-04T05:01:18.458Z,41.20
2023-04-04T05:01:50.892Z,41.05
2023-04-04T05:02:26.649Z,41.13
2023-04-04T05:03:00.734Z,41.25
2023-04-04T05:03:43.371Z,41.22
2023-04-04T05:04:18.906Z,41.43
2023-04-04T05:05:03.587Z,40.93
2023-04-04T05:05:40.330Z,41.12
2023-04-04T05:06:17.058Z,40.93
2023-04-04T05:06:50.423Z,40.99
2023-04-04T05:07:25.462Z,41.39
2023-04-04T05:08:00.259Z,41.15
2023-04-04T05:08:35.186Z,41.31
2023-04-04T05:09:20.933Z,40.90
2023-04-04T05:09:53.257Z,41.13
2023-04-04T05:10:30.732Z,40.76
2023-04-04T05:11:05.163Z,40.79
2023-04-04T05:11:38.800Z,40.83
2023-04-04T05:12:16.109Z,41.20
2023-04-04T05:12:52.252Z,40.92
2023-04-04T05:13:28.365Z,40.82
2023-04-04T05:14:03.317Z,40.81
2023-04-04T05:14:41.242Z,41.19
2023-04-04T05:15:16.397Z,41.24
2023-04-04T05:15:53.602Z,40.87
2023-04-04T05:16:26.806Z,41.03
2023-04-04T05:17:03.205Z,41.27
2023-04-04T05:17:41.019Z,41.03
2023-04-04T05:18:14.422Z,41.29
2023-04-04T05:18:47.989Z,40.90
2023-04-04T05:19:23.019Z,40.99
2023-04-04T05:19:59.140Z,41.21
2023-04-04T05:20:32.234Z,41.25
2023-04-04T05:21:08.932Z,41.01
2023-04-04T05:21:41.296Z,41.11
2023-04-04T05:22:19.749Z,41.21
2023-04-04T05:22:56.174Z,41.08
2023-04-04T05:23:37.899Z,41.22
2023-04-04T05:24:14.601Z,41.28
2023-04-04T05:24:47.568Z,41.17
2023-04-04T05:25:23.419Z,40.91
2023-04-04T05:25:58.458Z,40.91
2023-04-04T05:26:35.211Z,41.33
2023-04-04T05:27:10.666Z,41.09
2023-04-04T05:27:48.946Z,41.17
2023-04-04T05:28:27.184Z,41.03
2023-04-04T05:29:03.830Z,41.36
2023-04-04T05:29:37.883Z,40.96
2023-04-04T05:30:13.750Z,41.12
2023-04-04T05:30:58.744Z,41.25
2023-04-04T05:31:35.499Z,41.06
2023-04-04T05:32:13.013Z,41.36
2023-04-04T05:32:48.165Z,41.19
2023-04-04T05:33:30.161Z,41.02
2023-04-04T05:34:09.880Z,40.84
2023-04-04T05:34:43.724Z,41.21
2023-04-04T05:35:23.630Z,40.93
2023-04-04T05:35:59.258Z,40.76
2023-04-04T05:36:33.653Z,40.48
2023-04-04T05:37:13.095Z,40.63
2023-04-04T05:37:47.085Z,40.57
2023-04-04T05:38:24.889Z,40.43
2023-04-04T05:38:58.959Z,40.22
2023-04-04T05:39:36.862Z,40.38
2023-04-04T05:40:16.231Z,40.29
2023-04-04T05:40:53.948Z,40.41
2023-04-04T05:41:27.704Z,40.21
2023-04-04T05:42:08.662Z,40.17
2023-04-04T05:42:45.543Z,40.05
2023-04-04T05:43:18.389Z,40.30
2023-04-04T05:44:03.173Z,39.92
2023-04-04T05:44:35.542Z,39.89
2023-04-04T05:45:09.924Z,40.28
2023-04-04T05:45:44.865Z,39.79
2023-04-04T05:46:21.131Z,40.10
2023-04-04T05:46:59.797Z,39.88
2023-04-04T05:47:33.550Z,39.94
2023-04-04T05:48:09.929Z,39.87
2023-04-04T05:48:52.564Z,40.21
2023-04-04T05:49:27.963Z,40.04
2023-04-04T05:50:04.190Z,40.01
2023-04-04T05:50:44.126Z,40.17
2023-04-04T05:51:16.430Z,39.84
2023-04-04T05:51:56.897Z,40.30
2023-04-04T05:52:32.873Z,39.84
2023-04-04T05:53:05.681Z,39.92
2023-04-04T05:53:40.716Z,39.77
2023-04-04T05:54:13.530Z,39.84
2023-04-04T05:54:46.330Z,40.06
2023-04-04T05:55:29.793Z,40.26
2023-04-04T05:56:02.473Z,40.35
2023-04-04T05:56:37.366Z,40.25
2023-04-04T05:57:16.542Z,40.12
2023-04-04T05:57:53.905Z,39.90
2023-04-04T05:58:38.574Z,40.25
2023-04-04T05:59:11.255Z,40.23
2023-04-04T05:59:55.519Z,40.25
2023-04-04T06:00:31.720Z,39.88
2023-04-04T06:01:10.829Z,41.06
2023-04-04T06:01:47.118Z,40.88
2023-04-04T06:02:23.256Z,40.81
2023-04-04T06:02:59.986Z,40.38
2023-04-04T06:03:32.671Z,40.23
2023-04-04T06:04:08.646Z,40.14
2023-04-04T06:04:41.530Z,39.69
2023-04-04T06:05:18.770Z,39.82
2023-04-04T06:05:52.636Z,39.45
2023-04-04T06:06:25.403Z,39.61
2023-04-04T06:07:01.074Z,39.64
2023-04-04T06:07:33.861Z,39.26
2023-04-04T06:08:06.637Z,39.30
2023-04-04T06:08:52.868Z,39.38
2023-04-04T06:09:26.489Z,39.09
2023-04-04T06:10:01.638Z,39.02
2023-04-04T06:10:35.075Z,38.85
2023-04-04T06:11:07.472Z,38.93
2023-04-04T06:11:42.424Z,39.14
2023-04-04T06:12:17.831Z,38.93
2023-04-04T06:12:53.579Z,38.60
2023-04-04T06:13:25.934Z,38.91
2023-04-04T06:14:04.319Z,38.58
2023-04-04T06:14:39.506Z,38.84
2023-04-04T06:15:13.302Z,38.36
2023-04-04T06:15:50.585Z,38.19
2023-04-04T06:16:26.804Z,38.63
2023-04-04T06:17:04.444Z,38.56
2023-04-04T06:17:37.110Z,38.21
2023-04-04T06:18:09.957Z,38.54
2023-04-04T06:18:44.937Z,38.62
2023-04-04T06:19:17.259Z,38.53
2023-04-04T06:19:49.558Z,38.80
2023-04-04T06:20:24.755Z,38.58
2023-04-04T06:20:58.767Z,38.54
2023-04-04T06:21:34.362Z,38.44
2023-04-04T06:22:08.170Z,38.55
2023-04-04T06:22:45.666Z,38.54
2023-04-04T06:23:18.603Z,38.29
2023-04-04T06:23:56.089Z,38.19
2023-04-04T06:24:28.394Z,38.45
2023-04-04T06:25:00.763Z,38.46
2023-04-04T06:25:37.166Z,38.61
2023-04-04T06:26:09.551Z,37.76
2023-04-04T06:26:51.569Z,37.44
2023-04-04T06:27:25.951Z,37.82
2023-04-04T06:27:59.632Z,37.66
2023-04-04T06:28:35.096Z,38.30
2023-04-04T06:29:08.515Z,38.00
2023-04-04T06:29:44.122Z,38.59
2023-04-04T06:30:20.946Z,38.31
2023-04-04T06:30:56.350Z,38.46
2023-04-04T06:31:37.629Z,39.02
2023-04-04T06:32:20.674Z,38.99
2023-04-04T06:32:56.508Z,39.11
2023-04-04T06:33:32.750Z,39.47
2023-04-04T06:34:06.177Z,39.37
2023-04-04T06:34:46.497Z,39.49
2023-04-04T06:35:20.588Z,39.47
2023-04-04T06:36:04.987Z,39.99
2023-04-04T06:36:37.355Z,39.78
2023-04-04T06:37:10.742Z,39.77
2023-04-04T06:37:57.949Z,40.14
2023-04-04T06:38:31.724Z,40.11
2023-04-04T06:39:07.057Z,40.35
2023-04-04T06:39:42.246Z,40.39
2023-04-04T06:40:23.904Z,40.13
2023-04-04T06:40:58.869Z,40.16
2023-04-04T06:41:31.172Z,40.08
2023-04-04T06:42:03.621Z,40.57
2023-04-04T06:42:41.445Z,40.42
2023-04-04T06:43:14.304Z,40.38
2023-04-04T06:43:53.129Z,40.36
2023-04-04T06:44:25.481Z,40.28
2023-04-04T06:44:57.830Z,40.25
2023-04-04T06:45:33.829Z,40.71
2023-04-04T06:46:06.925Z,40.59
2023-04-04T06:46:39.569Z,40.41
2023-04-04T06:47:14.782Z,40.56
2023-04-04T06:47:50.297Z,40.49
2023-04-04T06:48:25.388Z,40.76
2023-04-04T06:48:57.748Z,40.67
2023-04-04T06:49:33.663Z,40.68
2023-04-04T06:50:07.632Z,40.86
2023-04-04T06:50:42.637Z,40.81
2023-04-04T06:51:18.948Z,40.54
2023-04-04T06:51:55.248Z,40.64
2023-04-04T06:52:27.609Z,40.58
2023-04-04T06:53:03.689Z,40.72
2023-04-04T06:53:36.245Z,40.96
2023-04-04T06:54:09.033Z,40.74
2023-04-04T06:54:44.726Z,40.79
2023-04-04T06:55:17.951Z,40.79
2023-04-04T06:55:50.294Z,40.56
2023-04-04T06:56:27.237Z,40.70
2023-04-04T06:57:00.655Z,41.03
2023-04-04T06:57:33.229Z,40.74
2023-04-04T06:58:08.152Z,40.69
2023-04-04T06:58:40.525Z,40.81
2023-04-04T06:59:13.190Z,40.88
2023-04-04T06:59:48.222Z,40.60
2023-04-04T07:00:21.611Z,41.03
2023-04-04T07:00:59.886Z,40.71
2023-04-04T07:01:33.955Z,40.61
2023-04-04T07:02:06.581Z,40.72
2023-04-04T07:02:41.508Z,40.79
2023-04-04T07:03:17.056Z,40.57
2023-04-04T07:03:52.205Z,40.39
2023-04-04T07:04:24.604Z,40.83
2023-04-04T07:04:56.891Z,40.93
2023-04-04T07:05:32.387Z,40.94
2023-04-04T07:06:05.307Z,40.81
2023-04-04T07:06:37.707Z,40.85
2023-04-04T07:07:12.634Z,40.66
2023-04-04T07:07:44.970Z,41.01
2023-04-04T07:08:19.878Z,40.76
2023-04-04T07:08:52.253Z,40.69
2023-04-04T07:09:29.554Z,40.83
2023-04-04T07:10:02.229Z,41.03
2023-04-04T07:10:34.592Z,40.73
2023-04-04T07:11:10.240Z,40.62
2023-04-04T07:11:42.537Z,40.82
2023-04-04T07:12:17.529Z,40.57
2023-04-04T07:12:49.953Z,40.94
2023-04-04T07:13:22.426Z,40.54
2023-04-04T07:13:57.659Z,40.74
2023-04-04T07:14:30.022Z,40.59
2023-04-04T07:15:02.316Z,40.81
2023-04-04T07:15:37.201Z,40.55
2023-04-04T07:16:09.586Z,40.77
2023-04-04T07:16:44.593Z,40.93
2023-04-04T07:17:24.204Z,40.96
2023-04-04T07:17:59.948Z,40.99
2023-04-04T07:18:34.872Z,40.62
2023-04-04T07:19:09.788Z,40.76
2023-04-04T07:19:42.122Z,41.20
2023-04-04T07:20:17.056Z,41.08
2023-04-04T07:20:49.413Z,40.73
2023-04-04T07:21:24.968Z,41.17
2023-04-04T07:21:57.652Z,40.54
2023-04-04T07:22:29.953Z,40.62
2023-04-04T07:23:04.890Z,40.47
2023-04-04T07:23:37.563Z,40.46
2023-04-04T07:24:09.924Z,40.52
2023-04-04T07:24:45.237Z,40.47
2023-04-04T07:25:17.750Z,40.64
2023-04-04T07:25:50.069Z,40.25
2023-04-04T07:26:24.982Z,40.42
2023-04-04T07:26:57.486Z,40.64
2023-04-04T07:27:32.537Z,40.19
2023-04-04T07:28:12.351Z,40.59
2023-04-04T07:28:48.064Z,40.29
2023-04-04T07:29:21.651Z,40.12